createdAt,value
2019-03-19T00:01:27.259Z,1.20
2019-03-19T00:03:57.446Z,1.20
2019-03-19T00:06:27.676Z,1.10
2019-03-19T00:08:57.934Z,1.10
2019-03-19T00:11:28.277Z,1.10
2019-03-19T00:13:58.681Z,1.00
2019-03-19T00:16:28.968Z,1.00
2019-03-19T00:18:59.141Z,0.90
2019-03-19T00:21:29.336Z,0.90
2019-03-19T00:23:59.486Z,0.90
2019-03-19T00:26:29.721Z,0.90
2019-03-19T00:28:59.906Z,1.00
2019-03-19T00:31:30.218Z,1.00
2019-03-19T00:34:00.493Z,1.10
2019-03-19T00:36:30.648Z,1.10
2019-03-19T00:39:00.903Z,1.10
2019-03-19T00:41:31.122Z,1.20
2019-03-19T00:44:01.449Z,1.20
2019-03-19T00:46:31.817Z,1.30
2019-03-19T00:49:02.121Z,1.30
2019-03-19T00:51:32.526Z,1.30
2019-03-19T00:54:02.861Z,1.20
2019-03-19T00:56:33.218Z,1.20
2019-03-19T00:59:03.478Z,1.20
2019-03-19T01:01:38.798Z,1.20
2019-03-19T01:04:09.389Z,1.20
2019-03-19T01:06:39.619Z,1.20
2019-03-19T01:09:09.993Z,1.20
2019-03-19T01:12:10.001Z,1.20
2019-03-19T01:14:40.208Z,1.30
2019-03-19T01:17:10.511Z,1.30
2019-03-19T01:19:40.802Z,1.30
2019-03-19T01:22:11.098Z,1.30
2019-03-19T01:24:41.381Z,1.30
2019-03-19T01:27:11.668Z,1.30
2019-03-19T01:29:49.814Z,1.30
2019-03-19T01:32:20.018Z,1.30
2019-03-19T01:34:50.321Z,1.20
2019-03-19T01:37:23.598Z,1.20
2019-03-19T01:39:53.831Z,1.20
2019-03-19T01:42:30.191Z,1.20
2019-03-19T01:45:00.455Z,1.20
2019-03-19T01:47:30.606Z,1.10
2019-03-19T01:50:00.795Z,1.10
2019-03-19T01:52:31.031Z,1.10
2019-03-19T01:55:01.233Z,1.00
2019-03-19T01:57:31.527Z,1.00
2019-03-19T02:00:01.869Z,1.00
2019-03-19T02:02:32.174Z,1.00
2019-03-19T02:05:02.459Z,1.00
2019-03-19T02:07:32.898Z,0.90
2019-03-19T02:10:03.128Z,0.90
2019-03-19T02:12:33.494Z,0.90
2019-03-19T02:15:03.843Z,0.90
2019-03-19T02:17:34.983Z,0.90
2019-03-19T02:20:06.265Z,1.00
2019-03-19T02:22:36.454Z,1.00
2019-03-19T02:25:07.788Z,1.00
2019-03-19T02:27:38.007Z,1.00
2019-03-19T02:30:09.451Z,0.90
2019-03-19T02:32:39.679Z,0.90
2019-03-19T02:35:10.004Z,0.90
2019-03-19T02:37:40.260Z,1.00
2019-03-19T02:40:10.640Z,1.00
2019-03-19T02:42:40.813Z,1.00
2019-03-19T02:45:11.175Z,1.00
2019-03-19T02:47:41.400Z,1.10
2019-03-19T02:50:11.803Z,1.20
2019-03-19T02:52:42.063Z,1.20
2019-03-19T02:55:12.521Z,1.30
2019-03-19T02:57:42.913Z,1.30
2019-03-19T03:00:13.495Z,1.30
2019-03-19T03:02:43.910Z,1.40
2019-03-19T03:05:14.773Z,1.50
2019-03-19T03:07:45.172Z,1.50
2019-03-19T03:10:15.555Z,1.50
2019-03-19T03:12:45.935Z,1.50
2019-03-19T03:15:16.325Z,1.50
2019-03-19T03:17:46.573Z,1.50
2019-03-19T03:20:16.972Z,1.60
2019-03-19T03:22:47.257Z,1.60
2019-03-19T03:25:17.681Z,1.70
2019-03-19T03:27:48.038Z,1.70
2019-03-19T03:30:18.534Z,1.70
2019-03-19T03:32:49.045Z,1.70
2019-03-19T03:35:19.398Z,1.70
2019-03-19T03:37:49.951Z,1.70
2019-03-19T03:40:20.404Z,1.70
2019-03-19T03:42:50.845Z,1.60
2019-03-19T03:45:21.395Z,1.60
2019-03-19T03:47:51.612Z,1.50
2019-03-19T03:50:21.999Z,1.50
2019-03-19T03:52:52.375Z,1.50
2019-03-19T03:55:22.634Z,1.50
2019-03-19T03:57:53.230Z,1.50
2019-03-19T04:00:23.549Z,1.60
2019-03-19T04:02:54.194Z,1.60
2019-03-19T04:05:24.482Z,1.60
2019-03-19T04:07:54.886Z,1.60
2019-03-19T04:10:25.089Z,1.60
2019-03-19T04:12:55.416Z,1.70
2019-03-19T04:15:25.644Z,1.60
2019-03-19T04:17:56.042Z,1.60
2019-03-19T04:20:26.365Z,1.60
2019-03-19T04:22:56.573Z,1.60
2019-03-19T04:25:26.949Z,1.70
2019-03-19T04:27:57.291Z,1.70
2019-03-19T04:30:27.653Z,1.80
2019-03-19T04:32:57.884Z,1.80
2019-03-19T04:35:28.095Z,1.80
2019-03-19T04:37:58.408Z,1.70
2019-03-19T04:40:28.728Z,1.70
2019-03-19T04:42:58.961Z,1.70
2019-03-19T04:45:29.374Z,1.60
2019-03-19T04:47:59.607Z,1.70
2019-03-19T04:50:30.021Z,1.70
2019-03-19T04:53:00.258Z,1.70
2019-03-19T04:55:30.589Z,1.70
2019-03-19T04:58:00.958Z,1.70
2019-03-19T05:00:31.169Z,1.70
2019-03-19T05:03:01.620Z,1.70
2019-03-19T05:05:31.746Z,1.70
2019-03-19T05:08:01.994Z,1.70
2019-03-19T05:10:32.309Z,1.70
2019-03-19T05:13:02.638Z,1.80
2019-03-19T05:15:32.908Z,1.80
2019-03-19T05:18:03.226Z,1.80
2019-03-19T05:20:33.531Z,1.90
2019-03-19T05:23:03.985Z,1.90
2019-03-19T05:25:34.358Z,1.90
2019-03-19T05:28:04.742Z,2.00
2019-03-19T05:30:35.038Z,2.00
2019-03-19T05:33:05.474Z,2.00
2019-03-19T05:35:35.640Z,2.00
2019-03-19T05:38:05.995Z,1.90
2019-03-19T05:40:36.231Z,1.90
2019-03-19T05:43:06.675Z,1.90
2019-03-19T05:45:36.975Z,1.90
2019-03-19T05:48:07.307Z,1.90
2019-03-19T05:50:37.576Z,1.90
2019-03-19T05:53:07.967Z,1.90
2019-03-19T05:55:38.193Z,1.90
2019-03-19T05:58:08.544Z,1.90
2019-03-19T06:00:38.943Z,1.80
2019-03-19T06:03:09.245Z,1.80
2019-03-19T06:05:39.561Z,1.80
2019-03-19T06:08:09.787Z,1.80
2019-03-19T06:10:40.051Z,1.80
2019-03-19T06:13:10.409Z,1.90
2019-03-19T06:15:40.717Z,1.90
2019-03-19T06:18:11.116Z,1.90
2019-03-19T06:20:41.433Z,1.90
2019-03-19T06:23:11.795Z,1.80
2019-03-19T06:25:42.116Z,1.90
2019-03-19T06:28:12.309Z,1.90
2019-03-19T06:30:42.628Z,1.90
2019-03-19T06:33:13.063Z,1.90
2019-03-19T06:35:43.282Z,1.90
2019-03-19T06:38:13.647Z,2.00
2019-03-19T06:40:44.094Z,2.00
2019-03-19T06:43:14.222Z,2.10
2019-03-19T06:45:44.537Z,2.10
2019-03-19T06:48:14.765Z,2.30
2019-03-19T06:50:45.716Z,2.30
2019-03-19T06:53:16.007Z,2.60
2019-03-19T06:55:46.393Z,2.60
2019-03-19T06:58:16.529Z,2.70
2019-03-19T07:00:46.778Z,2.70
2019-03-19T07:03:17.257Z,2.70
2019-03-19T07:05:47.586Z,2.70
2019-03-19T07:08:17.827Z,2.80
2019-03-19T07:10:48.091Z,2.80
2019-03-19T07:13:18.425Z,2.80
2019-03-19T07:15:48.622Z,2.90
2019-03-19T07:18:18.761Z,3.00
2019-03-19T07:20:48.983Z,3.10
2019-03-19T07:23:19.114Z,3.20
2019-03-19T07:25:49.370Z,3.40
2019-03-19T07:28:22.373Z,3.60
2019-03-19T07:30:51.545Z,3.70
2019-03-19T07:33:21.860Z,3.90
2019-03-19T07:35:52.177Z,4.10
2019-03-19T07:38:22.301Z,4.20
2019-03-19T07:40:52.441Z,4.40
2019-03-19T07:43:22.706Z,4.60
2019-03-19T07:45:52.932Z,4.70
2019-03-19T07:48:23.046Z,4.80
2019-03-19T07:50:53.203Z,4.90
2019-03-19T07:53:23.450Z,5.00
2019-03-19T07:55:53.760Z,5.10
2019-03-19T07:58:35.749Z,5.10
2019-03-19T08:00:56.831Z,5.10
2019-03-19T08:03:26.978Z,5.10
2019-03-19T08:05:57.202Z,5.20
2019-03-19T08:08:27.341Z,5.30
2019-03-19T08:10:57.592Z,5.40
2019-03-19T08:13:27.951Z,5.50
2019-03-19T08:15:58.113Z,5.50
2019-03-19T08:18:28.248Z,5.60
2019-03-19T08:20:58.572Z,5.60
2019-03-19T08:23:28.663Z,5.70
2019-03-19T08:25:58.966Z,5.70
2019-03-19T08:28:29.182Z,5.60
2019-03-19T08:30:59.384Z,5.60
2019-03-19T08:33:29.608Z,5.80
2019-03-19T08:36:09.028Z,5.90
2019-03-19T08:38:31.973Z,6.00
2019-03-19T08:41:02.223Z,6.10
2019-03-19T08:43:32.516Z,6.30
2019-03-19T08:46:02.814Z,6.50
2019-03-19T08:48:33.087Z,6.90
2019-03-19T08:51:03.356Z,7.00
2019-03-19T08:53:33.504Z,7.10
2019-03-19T08:56:03.835Z,7.30
2019-03-19T08:58:34.117Z,7.50
2019-03-19T09:01:04.487Z,7.60
2019-03-19T09:03:34.856Z,7.60
2019-03-19T09:06:05.207Z,7.50
2019-03-19T09:08:35.407Z,7.40
2019-03-19T09:11:05.797Z,7.20
2019-03-19T09:13:36.125Z,7.00
2019-03-19T09:16:06.528Z,6.80
2019-03-19T09:18:36.732Z,6.80
2019-03-19T09:21:07.083Z,6.80
2019-03-19T09:23:37.307Z,6.80
2019-03-19T09:26:07.620Z,7.00
2019-03-19T09:28:37.800Z,7.10
2019-03-19T09:31:08.189Z,7.30
2019-03-19T09:33:38.464Z,7.50
2019-03-19T09:36:08.816Z,7.80
2019-03-19T09:38:39.192Z,7.90
2019-03-19T09:41:09.511Z,8.00
2019-03-19T09:43:39.782Z,8.20
2019-03-19T09:46:10.112Z,8.40
2019-03-19T09:48:40.546Z,8.60
2019-03-19T09:51:10.888Z,8.60
2019-03-19T09:53:41.219Z,8.50
2019-03-19T09:56:11.455Z,8.40
2019-03-19T09:58:41.781Z,8.40
2019-03-19T10:01:12.027Z,8.30
2019-03-19T10:03:42.353Z,8.10
2019-03-19T10:06:14.470Z,8.30
2019-03-19T10:08:44.811Z,8.50
2019-03-19T10:11:14.918Z,8.80
2019-03-19T10:13:45.195Z,8.60
2019-03-19T10:16:15.437Z,8.40
2019-03-19T10:18:45.665Z,8.10
2019-03-19T10:21:15.994Z,7.80
2019-03-19T10:23:46.251Z,7.50
2019-03-19T10:26:16.577Z,7.30
2019-03-19T10:28:46.921Z,7.10
2019-03-19T10:31:17.269Z,6.80
2019-03-19T10:33:47.534Z,6.80
2019-03-19T10:36:17.920Z,7.00
2019-03-19T10:38:48.203Z,7.20
2019-03-19T10:41:18.685Z,7.50
2019-03-19T10:43:49.067Z,7.80
2019-03-19T10:46:19.386Z,8.10
2019-03-19T10:48:49.630Z,8.40
2019-03-19T10:51:19.911Z,8.80
2019-03-19T10:53:50.118Z,8.90
2019-03-19T10:56:20.363Z,9.10
2019-03-19T10:58:50.687Z,9.20
2019-03-19T11:01:21.106Z,9.50
2019-03-19T11:03:51.440Z,9.60
2019-03-19T11:06:22.190Z,9.60
2019-03-19T11:08:52.457Z,9.70
2019-03-19T11:11:22.753Z,9.90
2019-03-19T11:13:53.164Z,10.00
2019-03-19T11:16:23.426Z,10.00
2019-03-19T11:18:53.692Z,9.90
2019-03-19T11:21:23.904Z,9.90
2019-03-19T11:23:55.195Z,9.90
2019-03-19T11:26:25.619Z,9.70
2019-03-19T11:28:55.968Z,9.60
2019-03-19T11:31:26.265Z,9.50
2019-03-19T11:33:56.531Z,9.60
2019-03-19T11:36:26.850Z,9.60
2019-03-19T11:38:57.104Z,9.60
2019-03-19T11:41:27.381Z,9.40
2019-03-19T11:43:57.615Z,9.40
2019-03-19T11:46:28.049Z,9.60
2019-03-19T11:48:58.369Z,9.70
2019-03-19T11:51:28.591Z,9.80
2019-03-19T11:53:58.787Z,10.00
2019-03-19T11:56:29.035Z,10.10
2019-03-19T11:58:59.299Z,10.20
2019-03-19T12:01:29.525Z,10.10
2019-03-19T12:03:59.779Z,9.70
2019-03-19T12:06:30.073Z,9.30
2019-03-19T12:09:00.266Z,9.10
2019-03-19T12:11:30.454Z,8.90
2019-03-19T12:14:00.750Z,8.90
2019-03-19T12:16:31.081Z,9.00
2019-03-19T12:19:01.278Z,8.90
2019-03-19T12:21:31.494Z,8.90
2019-03-19T12:24:01.802Z,8.80
2019-03-19T12:26:31.919Z,8.80
2019-03-19T12:29:02.183Z,9.10
2019-03-19T12:31:32.606Z,9.50
2019-03-19T12:34:02.896Z,9.80
2019-03-19T12:36:33.220Z,10.00
2019-03-19T12:39:04.076Z,10.10
2019-03-19T12:41:34.248Z,10.10
2019-03-19T12:44:04.703Z,9.90
2019-03-19T12:46:34.977Z,9.90
2019-03-19T12:49:06.504Z,9.80
2019-03-19T21:03:35.441Z,1.50
2019-03-19T21:05:59.815Z,1.30
2019-03-19T21:08:30.156Z,1.30
2019-03-19T21:11:00.431Z,1.30
2019-03-19T21:13:30.705Z,1.30
2019-03-19T21:16:01.047Z,1.30
2019-03-19T21:18:31.326Z,1.20
2019-03-19T21:21:01.631Z,1.20
2019-03-19T21:23:31.849Z,1.20
2019-03-19T21:26:02.315Z,1.20
2019-03-19T21:28:34.314Z,1.20
2019-03-19T21:31:04.757Z,1.10
2019-03-19T21:33:34.984Z,1.10
2019-03-19T21:36:05.467Z,1.10
2019-03-19T21:38:35.770Z,1.10
2019-03-19T21:41:06.282Z,1.00
2019-03-19T21:43:36.718Z,1.00
2019-03-19T21:46:07.041Z,1.00
2019-03-19T21:48:37.415Z,1.00
2019-03-19T21:51:07.823Z,0.90
2019-03-19T21:53:38.028Z,0.90
2019-03-19T21:56:08.418Z,0.80
2019-03-19T21:58:38.881Z,0.80
2019-03-19T22:01:09.253Z,0.80
2019-03-19T22:03:39.392Z,0.80
2019-03-19T22:06:09.970Z,0.80
2019-03-19T22:08:40.191Z,0.70
2019-03-19T22:11:10.446Z,0.70
2019-03-19T22:13:40.723Z,0.70
2019-03-19T22:16:10.892Z,0.70
2019-03-19T22:18:41.170Z,0.70
2019-03-19T22:21:11.491Z,0.70
2019-03-19T22:23:41.723Z,0.70
2019-03-19T22:26:12.055Z,0.60
2019-03-19T22:28:42.265Z,0.60
2019-03-19T22:31:12.698Z,0.60
2019-03-19T22:33:42.967Z,0.50
2019-03-19T22:36:13.304Z,0.40
2019-03-19T22:38:43.579Z,0.40
2019-03-19T22:41:13.770Z,0.30
2019-03-19T22:43:43.970Z,0.20
2019-03-19T22:46:21.835Z,0.20
2019-03-19T22:48:46.495Z,0.20
2019-03-19T22:51:16.823Z,0.20
2019-03-19T22:53:47.038Z,0.20
2019-03-19T22:56:17.221Z,0.10
2019-03-19T22:58:47.468Z,0.10
2019-03-19T23:01:17.926Z,0.10
2019-03-19T23:03:48.243Z,0.10
2019-03-19T23:06:19.475Z,0.10
2019-03-19T23:08:49.751Z,0.00
2019-03-19T23:11:20.054Z,0.00
2019-03-19T23:13:50.886Z,-0.10
2019-03-19T23:16:21.236Z,-0.20
2019-03-19T23:18:51.442Z,-0.10
2019-03-19T23:21:21.615Z,-0.10
2019-03-19T23:23:52.003Z,-0.10
2019-03-19T23:26:22.317Z,-0.20
2019-03-19T23:28:52.681Z,-0.10
2019-03-19T23:31:23.091Z,-0.10
2019-03-19T23:33:53.322Z,-0.20
2019-03-19T23:36:23.589Z,-0.20
2019-03-19T23:38:53.815Z,-0.30
2019-03-19T23:41:24.010Z,-0.20
2019-03-19T23:43:54.393Z,-0.20
2019-03-19T23:46:24.619Z,-0.20
2019-03-19T23:48:54.780Z,-0.30
2019-03-19T23:51:25.259Z,-0.30
2019-03-19T23:53:55.633Z,-0.40
2019-03-19T23:56:25.987Z,-0.40
2019-03-19T23:58:56.280Z,-0.40
